createdAt,value
2023-02-24T00:01:18.555Z,17.52
2023-02-24T00:08:01.174Z,16.92
2023-02-24T00:14:45.245Z,16.02
2023-02-24T00:21:28.431Z,19.20
2023-02-24T00:28:14.411Z,21.48
2023-02-24T00:34:57.987Z,22.45
2023-02-24T00:41:42.753Z,22.65
2023-02-24T00:48:29.726Z,22.75
2023-02-24T00:55:15.069Z,22.83
2023-02-24T01:01:57.489Z,23.50
2023-02-24T01:08:42.745Z,23.95
2023-02-24T01:15:25.639Z,24.67
2023-02-24T01:22:09.972Z,24.00
2023-02-24T01:28:53.470Z,23.63
2023-02-24T01:35:35.952Z,21.95
2023-02-24T01:42:21.139Z,22.05
2023-02-24T01:49:08.265Z,19.63
2023-02-24T01:55:51.246Z,20.95
2023-02-24T02:02:33.904Z,21.05
2023-02-24T02:09:17.216Z,21.75
2023-02-24T02:16:09.338Z,20.92
2023-02-24T02:23:13.956Z,20.42
2023-02-24T02:30:26.247Z,22.17
2023-02-24T02:37:14.713Z,21.90
2023-02-24T02:44:09.251Z,22.83
2023-02-24T02:51:04.126Z,22.80
2023-02-24T02:57:48.731Z,23.77
2023-02-24T03:04:31.310Z,24.77
2023-02-24T03:11:18.654Z,23.95
2023-02-24T03:18:12.001Z,23.48
2023-02-24T03:24:55.357Z,22.10
2023-02-24T03:32:13.168Z,23.67
2023-02-24T03:38:58.171Z,23.65
2023-02-24T03:45:42.038Z,23.35
2023-02-24T03:52:52.281Z,23.08
2023-02-24T04:00:22.452Z,24.10
2023-02-24T04:07:19.444Z,22.42
2023-02-24T04:14:10.885Z,26.17
2023-02-24T04:20:59.675Z,26.00
2023-02-24T04:27:44.201Z,28.15
2023-02-24T04:34:32.495Z,26.73
2023-02-24T04:41:23.109Z,25.92
2023-02-24T04:48:12.365Z,28.33
2023-02-24T04:54:54.648Z,30.33
2023-02-24T05:01:42.064Z,31.20
2023-02-24T05:08:26.270Z,34.25
2023-02-24T05:15:09.119Z,32.50
2023-02-24T05:21:51.792Z,32.42
2023-02-24T05:28:35.237Z,32.65
2023-02-24T05:35:17.745Z,30.13
2023-02-24T05:42:06.009Z,34.00
2023-02-24T05:48:51.177Z,31.75
2023-02-24T05:55:36.503Z,33.50
2023-02-24T06:02:27.677Z,31.88
2023-02-24T06:09:14.246Z,32.30
2023-02-24T06:15:57.136Z,33.63
2023-02-24T06:22:42.443Z,33.40
2023-02-24T06:29:29.379Z,33.75
2023-02-24T06:36:14.303Z,35.08
2023-02-24T06:42:56.999Z,36.85
2023-02-24T06:49:39.374Z,38.20
2023-02-24T06:56:21.689Z,37.00
2023-02-24T07:03:17.112Z,36.90
2023-02-24T07:09:59.963Z,37.22
2023-02-24T07:16:45.657Z,37.97
2023-02-24T07:23:29.250Z,39.22
2023-02-24T07:30:12.366Z,36.40
2023-02-24T07:36:56.094Z,35.88
2023-02-24T07:43:39.993Z,36.30
2023-02-24T07:50:22.356Z,35.72
2023-02-24T07:57:05.889Z,35.95
2023-02-24T08:03:55.910Z,35.40
2023-02-24T08:10:40.803Z,34.13
2023-02-24T08:17:26.410Z,33.55
2023-02-24T08:24:20.629Z,34.17
2023-02-24T08:31:04.549Z,34.20
2023-02-24T08:37:52.508Z,34.97
2023-02-24T08:44:37.103Z,33.80
2023-02-24T08:51:31.324Z,32.05
2023-02-24T08:58:18.200Z,33.10
2023-02-24T09:05:05.172Z,29.23
2023-02-24T09:11:59.324Z,32.50
2023-02-24T09:18:42.717Z,30.70
2023-02-24T09:25:40.790Z,30.67
2023-02-24T09:32:23.567Z,29.75
2023-02-24T09:39:05.958Z,29.33
2023-02-24T09:45:58.167Z,30.45
2023-02-24T09:52:41.296Z,28.75
2023-02-24T10:00:01.199Z,25.48
2023-02-24T10:06:48.170Z,25.63
2023-02-24T10:13:32.618Z,21.13
2023-02-24T10:20:31.052Z,17.85
2023-02-24T10:27:23.940Z,14.70
2023-02-24T10:34:11.896Z,15.43
2023-02-24T10:40:56.690Z,18.85
2023-02-24T10:47:44.392Z,22.45
2023-02-24T10:54:44.663Z,23.65
2023-02-24T11:01:43.580Z,28.73
2023-02-24T11:08:36.621Z,28.60
2023-02-24T11:15:44.903Z,28.70
2023-02-24T11:22:33.956Z,27.10
2023-02-24T11:29:45.037Z,28.30
2023-02-24T11:36:40.855Z,26.02
2023-02-24T11:43:26.388Z,25.10
2023-02-24T11:50:32.439Z,26.98
2023-02-24T11:57:43.656Z,26.15
2023-02-24T12:04:32.049Z,26.65
2023-02-24T12:11:32.883Z,25.27
2023-02-24T12:18:36.009Z,27.55
2023-02-24T12:25:25.200Z,28.48
2023-02-24T12:32:11.283Z,25.23
2023-02-24T12:39:12.339Z,26.33
2023-02-24T12:46:09.147Z,23.75
2023-02-24T12:53:06.404Z,23.80
2023-02-24T12:59:50.712Z,23.50
2023-02-24T13:07:07.526Z,21.88
2023-02-24T13:14:03.381Z,22.95
2023-02-24T13:20:45.976Z,22.42
2023-02-24T13:27:30.466Z,22.83
2023-02-24T13:34:41.880Z,26.20
2023-02-24T13:41:27.140Z,23.50
2023-02-24T13:48:28.194Z,22.45
2023-02-24T13:55:48.102Z,21.45
2023-02-24T14:02:35.823Z,20.77
2023-02-24T14:09:24.641Z,22.35
2023-02-24T14:16:13.057Z,19.65
2023-02-24T14:22:59.073Z,16.65
2023-02-24T14:29:44.416Z,20.58
2023-02-24T14:36:30.885Z,18.10
2023-02-24T14:43:15.019Z,18.08
2023-02-24T14:49:59.906Z,17.92
2023-02-24T14:56:42.365Z,18.63
2023-02-24T15:03:36.384Z,17.98
2023-02-24T15:10:25.155Z,16.95
2023-02-24T15:17:16.238Z,17.10
2023-02-24T15:24:01.348Z,15.07
2023-02-24T15:31:18.852Z,14.65
2023-02-24T15:38:02.864Z,14.02
2023-02-24T15:44:59.602Z,13.50
2023-02-24T15:51:47.252Z,12.88
2023-02-24T15:58:30.555Z,13.98
2023-02-24T16:05:14.421Z,13.35
2023-02-24T16:11:56.862Z,13.10
2023-02-24T16:18:39.501Z,14.25
2023-02-24T16:25:22.135Z,13.10
2023-02-24T16:32:04.841Z,13.35
2023-02-24T16:38:52.179Z,13.45
2023-02-24T16:45:36.247Z,14.85
2023-02-24T16:52:20.059Z,14.80
2023-02-24T16:59:02.343Z,14.30
2023-02-24T17:05:45.035Z,12.93
2023-02-24T17:12:27.409Z,13.40
2023-02-24T17:19:09.829Z,12.98
2023-02-24T17:25:54.802Z,13.40
2023-02-24T17:32:37.173Z,12.82
2023-02-24T17:39:19.618Z,12.43
2023-02-24T17:46:04.449Z,11.27
2023-02-24T17:52:48.209Z,10.05
2023-02-24T17:59:30.539Z,9.07
2023-02-24T18:06:13.119Z,8.40
2023-02-24T18:12:55.416Z,8.25
2023-02-24T18:19:37.767Z,7.07
2023-02-24T18:26:23.487Z,7.25
2023-02-24T18:33:06.477Z,7.78
2023-02-24T18:39:48.950Z,7.07
2023-02-24T18:46:31.346Z,8.50
2023-02-24T18:53:13.656Z,8.75
2023-02-24T18:59:55.941Z,9.43
2023-02-24T19:06:38.322Z,12.40
2023-02-24T19:13:20.688Z,10.70
2023-02-24T19:20:03.144Z,10.80
2023-02-24T19:26:47.395Z,11.45
2023-02-24T19:33:29.675Z,11.40
2023-02-24T19:40:12.484Z,12.35
2023-02-24T19:46:54.823Z,13.23
2023-02-24T19:53:37.824Z,13.18
2023-02-24T20:00:20.852Z,14.55
2023-02-24T20:07:03.212Z,14.82
2023-02-24T20:13:46.628Z,14.60
2023-02-24T20:20:30.326Z,13.25
2023-02-24T20:27:12.799Z,14.05
2023-02-24T20:33:56.335Z,15.23
2023-02-24T20:40:39.330Z,15.05
2023-02-24T20:47:21.669Z,15.35
2023-02-24T20:54:06.182Z,15.07
2023-02-24T21:00:48.573Z,14.68
2023-02-24T21:07:31.784Z,16.27
2023-02-24T21:14:15.840Z,5.57
2023-02-24T21:20:58.286Z,4.20
2023-02-24T21:27:40.743Z,2.47
2023-02-24T21:34:23.099Z,2.65
2023-02-24T21:41:13.411Z,2.42
2023-02-24T21:47:55.831Z,2.40
2023-02-24T21:54:38.152Z,2.95
2023-02-24T22:01:24.202Z,3.45
2023-02-24T22:08:06.711Z,3.38
2023-02-24T22:14:49.066Z,4.50
2023-02-24T22:21:32.510Z,10.43
2023-02-24T22:28:14.803Z,4.40
2023-02-24T22:34:57.125Z,4.60
2023-02-24T22:41:39.575Z,4.28
2023-02-24T22:48:21.905Z,3.90
2023-02-24T22:55:04.344Z,5.30
2023-02-24T23:01:46.620Z,4.80
2023-02-24T23:08:31.017Z,7.07
2023-02-24T23:15:13.651Z,4.85
2023-02-24T23:21:57.020Z,3.95
2023-02-24T23:28:39.966Z,4.15
2023-02-24T23:35:22.309Z,3.97
2023-02-24T23:42:04.648Z,4.65
2023-02-24T23:48:51.575Z,4.25
2023-02-24T23:55:35.471Z,4.90
